sensor_id;sensor_type;location;lat;lon;timestamp;P1;durP1;ratioP1;P2;durP2;ratioP2
70148;SDS011;57514;52.164;5.282;2023-02-20T00:01:30;12.88;;;5.45;;
70148;SDS011;57514;52.164;5.282;2023-02-20T00:03:57;16.08;;;6.63;;
70148;SDS011;57514;52.164;5.282;2023-02-20T00:06:25;14.13;;;7.32;;
70148;SDS011;57514;52.164;5.282;2023-02-20T00:08:52;15.88;;;7.28;;
70148;SDS011;57514;52.164;5.282;2023-02-20T00:11:19;12.18;;;5.60;;
70148;SDS011;57514;52.164;5.282;2023-02-20T00:13:47;17.95;;;7.15;;
70148;SDS011;57514;52.164;5.282;2023-02-20T00:16:15;19.55;;;9.10;;
70148;SDS011;57514;52.164;5.282;2023-02-20T00:18:43;18.63;;;7.88;;
70148;SDS011;57514;52.164;5.282;2023-02-20T00:21:11;14.23;;;7.63;;
70148;SDS011;57514;52.164;5.282;2023-02-20T00:23:38;15.27;;;7.55;;
70148;SDS011;57514;52.164;5.282;2023-02-20T00:26:09;16.08;;;8.23;;
70148;SDS011;57514;52.164;5.282;2023-02-20T00:28:38;15.23;;;7.93;;
70148;SDS011;57514;52.164;5.282;2023-02-20T00:31:06;18.60;;;8.48;;
70148;SDS011;57514;52.164;5.282;2023-02-20T00:33:34;15.90;;;7.22;;
70148;SDS011;57514;52.164;5.282;2023-02-20T00:36:02;18.48;;;8.35;;
70148;SDS011;57514;52.164;5.282;2023-02-20T00:38:30;20.33;;;9.63;;
70148;SDS011;57514;52.164;5.282;2023-02-20T00:41:00;19.50;;;7.88;;
70148;SDS011;57514;52.164;5.282;2023-02-20T00:43:27;19.60;;;9.07;;
70148;SDS011;57514;52.164;5.282;2023-02-20T00:45:57;14.38;;;7.55;;
70148;SDS011;57514;52.164;5.282;2023-02-20T00:48:24;20.42;;;9.13;;
70148;SDS011;57514;52.164;5.282;2023-02-20T00:51:11;19.50;;;9.93;;
70148;SDS011;57514;52.164;5.282;2023-02-20T00:53:39;17.30;;;7.60;;
70148;SDS011;57514;52.164;5.282;2023-02-20T00:56:07;17.05;;;7.43;;
70148;SDS011;57514;52.164;5.282;2023-02-20T00:58:35;15.57;;;7.30;;
70148;SDS011;57514;52.164;5.282;2023-02-20T01:01:02;19.48;;;7.75;;
70148;SDS011;57514;52.164;5.282;2023-02-20T01:03:29;12.65;;;5.60;;
70148;SDS011;57514;52.164;5.282;2023-02-20T01:05:56;18.20;;;8.13;;
70148;SDS011;57514;52.164;5.282;2023-02-20T01:08:24;15.13;;;8.20;;
70148;SDS011;57514;52.164;5.282;2023-02-20T01:10:52;16.30;;;7.40;;
70148;SDS011;57514;52.164;5.282;2023-02-20T01:13:19;18.05;;;8.18;;
70148;SDS011;57514;52.164;5.282;2023-02-20T01:15:46;17.25;;;7.88;;
70148;SDS011;57514;52.164;5.282;2023-02-20T01:18:14;23.98;;;9.98;;
70148;SDS011;57514;52.164;5.282;2023-02-20T01:20:41;12.60;;;6.25;;
70148;SDS011;57514;52.164;5.282;2023-02-20T01:23:09;18.40;;;9.85;;
70148;SDS011;57514;52.164;5.282;2023-02-20T01:25:36;18.25;;;9.68;;
70148;SDS011;57514;52.164;5.282;2023-02-20T01:28:03;16.95;;;10.25;;
70148;SDS011;57514;52.164;5.282;2023-02-20T01:30:31;17.65;;;7.35;;
70148;SDS011;57514;52.164;5.282;2023-02-20T01:32:58;11.43;;;5.57;;
70148;SDS011;57514;52.164;5.282;2023-02-20T01:35:26;21.83;;;11.05;;
70148;SDS011;57514;52.164;5.282;2023-02-20T01:37:57;14.27;;;5.60;;
70148;SDS011;57514;52.164;5.282;2023-02-20T01:40:25;22.25;;;9.13;;
70148;SDS011;57514;52.164;5.282;2023-02-20T01:42:53;21.27;;;12.27;;
70148;SDS011;57514;52.164;5.282;2023-02-20T01:47:49;12.88;;;6.93;;
70148;SDS011;57514;52.164;5.282;2023-02-20T01:50:18;15.88;;;7.43;;
70148;SDS011;57514;52.164;5.282;2023-02-20T01:52:47;15.73;;;7.90;;
70148;SDS011;57514;52.164;5.282;2023-02-20T01:55:17;18.52;;;9.25;;
70148;SDS011;57514;52.164;5.282;2023-02-20T01:57:48;20.67;;;11.05;;
70148;SDS011;57514;52.164;5.282;2023-02-20T02:00:18;20.30;;;8.95;;
70148;SDS011;57514;52.164;5.282;2023-02-20T02:02:50;19.02;;;7.97;;
70148;SDS011;57514;52.164;5.282;2023-02-20T02:05:20;18.45;;;8.13;;
70148;SDS011;57514;52.164;5.282;2023-02-20T02:07:52;19.38;;;8.65;;
70148;SDS011;57514;52.164;5.282;2023-02-20T02:10:22;26.20;;;11.93;;
70148;SDS011;57514;52.164;5.282;2023-02-20T02:12:51;28.65;;;12.75;;
70148;SDS011;57514;52.164;5.282;2023-02-20T02:15:20;24.35;;;11.55;;
70148;SDS011;57514;52.164;5.282;2023-02-20T02:20:20;26.90;;;10.75;;
70148;SDS011;57514;52.164;5.282;2023-02-20T02:31:31;23.38;;;9.38;;
70148;SDS011;57514;52.164;5.282;2023-02-20T02:34:10;18.10;;;8.90;;
70148;SDS011;57514;52.164;5.282;2023-02-20T02:39:24;21.45;;;10.43;;
70148;SDS011;57514;52.164;5.282;2023-02-20T02:44:52;27.40;;;13.10;;
70148;SDS011;57514;52.164;5.282;2023-02-20T02:50:56;36.28;;;18.00;;
70148;SDS011;57514;52.164;5.282;2023-02-20T02:52:57;21.95;;;11.10;;
70148;SDS011;57514;52.164;5.282;2023-02-20T02:55:26;33.13;;;14.00;;
70148;SDS011;57514;52.164;5.282;2023-02-20T02:57:54;29.98;;;14.93;;
70148;SDS011;57514;52.164;5.282;2023-02-20T03:00:32;38.35;;;17.73;;
70148;SDS011;57514;52.164;5.282;2023-02-20T03:03:06;27.52;;;10.93;;
70148;SDS011;57514;52.164;5.282;2023-02-20T03:05:37;37.25;;;17.10;;
70148;SDS011;57514;52.164;5.282;2023-02-20T03:08:11;29.65;;;14.02;;
70148;SDS011;57514;52.164;5.282;2023-02-20T03:10:39;30.30;;;13.95;;
70148;SDS011;57514;52.164;5.282;2023-02-20T03:13:09;42.15;;;17.67;;
70148;SDS011;57514;52.164;5.282;2023-02-20T03:15:44;29.23;;;12.80;;
70148;SDS011;57514;52.164;5.282;2023-02-20T03:20:41;28.52;;;13.73;;
70148;SDS011;57514;52.164;5.282;2023-02-20T03:23:12;29.98;;;13.23;;
70148;SDS011;57514;52.164;5.282;2023-02-20T03:25:51;32.92;;;14.48;;
70148;SDS011;57514;52.164;5.282;2023-02-20T03:28:24;33.13;;;14.80;;
70148;SDS011;57514;52.164;5.282;2023-02-20T03:33:24;30.70;;;13.57;;
70148;SDS011;57514;52.164;5.282;2023-02-20T03:36:13;30.48;;;14.32;;
70148;SDS011;57514;52.164;5.282;2023-02-20T03:39:02;33.17;;;15.82;;
70148;SDS011;57514;52.164;5.282;2023-02-20T03:41:49;39.20;;;16.67;;
70148;SDS011;57514;52.164;5.282;2023-02-20T03:44:41;37.45;;;16.73;;
70148;SDS011;57514;52.164;5.282;2023-02-20T03:47:09;28.73;;;13.93;;
70148;SDS011;57514;52.164;5.282;2023-02-20T03:49:39;32.85;;;13.98;;
70148;SDS011;57514;52.164;5.282;2023-02-20T03:52:10;26.58;;;12.07;;
70148;SDS011;57514;52.164;5.282;2023-02-20T03:54:39;33.42;;;13.20;;
70148;SDS011;57514;52.164;5.282;2023-02-20T04:02:15;32.85;;;13.38;;
70148;SDS011;57514;52.164;5.282;2023-02-20T04:04:46;40.75;;;16.42;;
70148;SDS011;57514;52.164;5.282;2023-02-20T04:07:15;34.55;;;17.23;;
70148;SDS011;57514;52.164;5.282;2023-02-20T04:09:45;33.28;;;15.45;;
70148;SDS011;57514;52.164;5.282;2023-02-20T04:12:21;30.95;;;13.35;;
70148;SDS011;57514;52.164;5.282;2023-02-20T04:14:51;28.10;;;13.63;;
70148;SDS011;57514;52.164;5.282;2023-02-20T04:17:23;36.95;;;14.18;;
70148;SDS011;57514;52.164;5.282;2023-02-20T04:19:52;37.72;;;14.60;;
70148;SDS011;57514;52.164;5.282;2023-02-20T04:22:23;38.15;;;17.02;;
70148;SDS011;57514;52.164;5.282;2023-02-20T04:24:55;27.33;;;11.90;;
70148;SDS011;57514;52.164;5.282;2023-02-20T04:27:26;25.98;;;12.75;;
70148;SDS011;57514;52.164;5.282;2023-02-20T04:29:55;31.73;;;12.57;;
70148;SDS011;57514;52.164;5.282;2023-02-20T04:32:23;28.17;;;12.43;;
70148;SDS011;57514;52.164;5.282;2023-02-20T04:34:51;32.72;;;14.13;;
70148;SDS011;57514;52.164;5.282;2023-02-20T04:37:19;33.65;;;16.65;;
70148;SDS011;57514;52.164;5.282;2023-02-20T04:39:50;29.15;;;14.98;;
70148;SDS011;57514;52.164;5.282;2023-02-20T04:42:18;32.47;;;14.68;;
70148;SDS011;57514;52.164;5.282;2023-02-20T04:44:46;25.05;;;13.15;;
70148;SDS011;57514;52.164;5.282;2023-02-20T04:47:14;29.80;;;11.10;;
70148;SDS011;57514;52.164;5.282;2023-02-20T04:49:42;33.13;;;14.38;;
70148;SDS011;57514;52.164;5.282;2023-02-20T04:52:13;26.95;;;13.25;;
70148;SDS011;57514;52.164;5.282;2023-02-20T04:54:40;37.50;;;14.88;;
70148;SDS011;57514;52.164;5.282;2023-02-20T04:57:10;33.28;;;14.10;;
70148;SDS011;57514;52.164;5.282;2023-02-20T04:59:37;24.33;;;12.75;;
70148;SDS011;57514;52.164;5.282;2023-02-20T05:02:05;28.92;;;10.98;;
70148;SDS011;57514;52.164;5.282;2023-02-20T05:04:35;32.92;;;12.68;;
70148;SDS011;57514;52.164;5.282;2023-02-20T05:07:02;21.98;;;11.18;;
70148;SDS011;57514;52.164;5.282;2023-02-20T05:09:30;42.13;;;17.00;;
70148;SDS011;57514;52.164;5.282;2023-02-20T05:11:57;30.35;;;14.60;;
70148;SDS011;57514;52.164;5.282;2023-02-20T05:14:24;33.35;;;15.38;;
70148;SDS011;57514;52.164;5.282;2023-02-20T05:16:52;33.72;;;14.82;;
70148;SDS011;57514;52.164;5.282;2023-02-20T05:19:19;24.48;;;10.30;;
70148;SDS011;57514;52.164;5.282;2023-02-20T05:21:46;33.25;;;13.20;;
70148;SDS011;57514;52.164;5.282;2023-02-20T05:24:32;29.15;;;11.60;;
70148;SDS011;57514;52.164;5.282;2023-02-20T05:26:59;41.47;;;15.73;;
70148;SDS011;57514;52.164;5.282;2023-02-20T05:29:27;29.88;;;11.90;;
70148;SDS011;57514;52.164;5.282;2023-02-20T05:31:54;24.45;;;10.40;;
70148;SDS011;57514;52.164;5.282;2023-02-20T05:34:21;33.00;;;13.45;;
70148;SDS011;57514;52.164;5.282;2023-02-20T05:36:51;23.48;;;9.65;;
70148;SDS011;57514;52.164;5.282;2023-02-20T05:39:19;12.30;;;6.85;;
70148;SDS011;57514;52.164;5.282;2023-02-20T05:41:46;26.17;;;12.85;;
70148;SDS011;57514;52.164;5.282;2023-02-20T05:44:14;24.55;;;11.00;;
70148;SDS011;57514;52.164;5.282;2023-02-20T05:46:42;40.20;;;14.85;;
70148;SDS011;57514;52.164;5.282;2023-02-20T05:49:09;21.70;;;9.40;;
70148;SDS011;57514;52.164;5.282;2023-02-20T05:51:36;36.15;;;13.52;;
70148;SDS011;57514;52.164;5.282;2023-02-20T05:54:04;39.20;;;15.13;;
70148;SDS011;57514;52.164;5.282;2023-02-20T05:56:31;21.83;;;9.07;;
70148;SDS011;57514;52.164;5.282;2023-02-20T05:58:59;20.90;;;9.70;;
70148;SDS011;57514;52.164;5.282;2023-02-20T06:01:27;23.50;;;9.60;;
70148;SDS011;57514;52.164;5.282;2023-02-20T06:03:55;21.95;;;9.15;;
70148;SDS011;57514;52.164;5.282;2023-02-20T06:06:23;32.30;;;13.30;;
70148;SDS011;57514;52.164;5.282;2023-02-20T06:08:50;30.23;;;12.00;;
70148;SDS011;57514;52.164;5.282;2023-02-20T06:11:17;17.55;;;7.97;;
70148;SDS011;57514;52.164;5.282;2023-02-20T06:13:45;28.02;;;11.70;;
70148;SDS011;57514;52.164;5.282;2023-02-20T06:16:12;27.80;;;10.73;;
70148;SDS011;57514;52.164;5.282;2023-02-20T06:18:40;23.15;;;10.75;;
70148;SDS011;57514;52.164;5.282;2023-02-20T06:21:08;26.20;;;10.45;;
70148;SDS011;57514;52.164;5.282;2023-02-20T06:23:36;25.25;;;8.68;;
70148;SDS011;57514;52.164;5.282;2023-02-20T06:26:07;26.70;;;10.60;;
70148;SDS011;57514;52.164;5.282;2023-02-20T06:28:36;33.50;;;11.50;;
70148;SDS011;57514;52.164;5.282;2023-02-20T06:31:03;30.50;;;11.60;;
70148;SDS011;57514;52.164;5.282;2023-02-20T06:33:31;24.23;;;11.40;;
70148;SDS011;57514;52.164;5.282;2023-02-20T06:35:58;25.15;;;9.70;;
70148;SDS011;57514;52.164;5.282;2023-02-20T06:38:26;24.30;;;10.20;;
70148;SDS011;57514;52.164;5.282;2023-02-20T06:40:53;15.85;;;7.50;;
70148;SDS011;57514;52.164;5.282;2023-02-20T06:43:20;27.85;;;10.00;;
70148;SDS011;57514;52.164;5.282;2023-02-20T06:45:47;25.02;;;9.65;;
70148;SDS011;57514;52.164;5.282;2023-02-20T06:48:15;20.02;;;9.18;;
70148;SDS011;57514;52.164;5.282;2023-02-20T06:50:42;23.52;;;8.13;;
70148;SDS011;57514;52.164;5.282;2023-02-20T06:53:09;17.92;;;9.35;;
70148;SDS011;57514;52.164;5.282;2023-02-20T06:55:37;18.70;;;9.00;;
70148;SDS011;57514;52.164;5.282;2023-02-20T06:58:04;19.67;;;9.60;;
70148;SDS011;57514;52.164;5.282;2023-02-20T07:00:31;15.32;;;7.38;;
70148;SDS011;57514;52.164;5.282;2023-02-20T07:02:58;21.40;;;8.70;;
70148;SDS011;57514;52.164;5.282;2023-02-20T07:05:26;25.80;;;8.98;;
70148;SDS011;57514;52.164;5.282;2023-02-20T07:07:54;14.35;;;6.80;;
70148;SDS011;57514;52.164;5.282;2023-02-20T07:10:21;21.40;;;8.20;;
70148;SDS011;57514;52.164;5.282;2023-02-20T07:12:49;19.88;;;8.40;;
70148;SDS011;57514;52.164;5.282;2023-02-20T07:15:16;23.90;;;8.65;;
70148;SDS011;57514;52.164;5.282;2023-02-20T07:17:45;23.13;;;8.98;;
70148;SDS011;57514;52.164;5.282;2023-02-20T07:20:13;16.48;;;7.53;;
70148;SDS011;57514;52.164;5.282;2023-02-20T07:22:47;26.55;;;10.23;;
70148;SDS011;57514;52.164;5.282;2023-02-20T07:25:15;27.88;;;10.48;;
70148;SDS011;57514;52.164;5.282;2023-02-20T07:27:42;22.08;;;8.48;;
70148;SDS011;57514;52.164;5.282;2023-02-20T07:30:09;20.20;;;8.23;;
70148;SDS011;57514;52.164;5.282;2023-02-20T07:32:37;22.23;;;9.23;;
70148;SDS011;57514;52.164;5.282;2023-02-20T07:35:04;23.15;;;8.77;;
70148;SDS011;57514;52.164;5.282;2023-02-20T07:37:34;24.38;;;8.90;;
70148;SDS011;57514;52.164;5.282;2023-02-20T07:40:02;18.67;;;7.47;;
70148;SDS011;57514;52.164;5.282;2023-02-20T07:42:29;16.92;;;7.05;;
70148;SDS011;57514;52.164;5.282;2023-02-20T07:45:18;15.98;;;5.60;;
70148;SDS011;57514;52.164;5.282;2023-02-20T07:47:45;19.25;;;6.65;;
70148;SDS011;57514;52.164;5.282;2023-02-20T07:50:13;16.88;;;6.78;;
70148;SDS011;57514;52.164;5.282;2023-02-20T07:52:41;14.50;;;6.20;;
70148;SDS011;57514;52.164;5.282;2023-02-20T07:55:08;17.85;;;7.20;;
70148;SDS011;57514;52.164;5.282;2023-02-20T07:57:39;19.33;;;8.20;;
70148;SDS011;57514;52.164;5.282;2023-02-20T08:00:06;19.60;;;6.47;;
70148;SDS011;57514;52.164;5.282;2023-02-20T08:02:42;21.38;;;7.78;;
70148;SDS011;57514;52.164;5.282;2023-02-20T08:05:10;16.27;;;6.88;;
70148;SDS011;57514;52.164;5.282;2023-02-20T08:07:37;19.10;;;7.38;;
70148;SDS011;57514;52.164;5.282;2023-02-20T08:10:04;18.20;;;7.38;;
70148;SDS011;57514;52.164;5.282;2023-02-20T08:12:32;17.75;;;8.55;;
70148;SDS011;57514;52.164;5.282;2023-02-20T08:14:59;17.38;;;7.32;;
70148;SDS011;57514;52.164;5.282;2023-02-20T08:17:26;20.33;;;7.97;;
70148;SDS011;57514;52.164;5.282;2023-02-20T08:20:11;19.80;;;7.00;;
70148;SDS011;57514;52.164;5.282;2023-02-20T08:22:38;19.85;;;6.88;;
70148;SDS011;57514;52.164;5.282;2023-02-20T08:25:07;23.75;;;8.80;;
70148;SDS011;57514;52.164;5.282;2023-02-20T08:27:35;21.50;;;8.25;;
70148;SDS011;57514;52.164;5.282;2023-02-20T08:30:06;15.18;;;5.65;;
70148;SDS011;57514;52.164;5.282;2023-02-20T08:32:34;16.25;;;6.05;;
70148;SDS011;57514;52.164;5.282;2023-02-20T08:35:01;18.92;;;7.35;;
70148;SDS011;57514;52.164;5.282;2023-02-20T08:37:28;21.67;;;8.77;;
70148;SDS011;57514;52.164;5.282;2023-02-20T08:39:55;14.63;;;6.10;;
70148;SDS011;57514;52.164;5.282;2023-02-20T08:42:23;24.48;;;8.57;;
70148;SDS011;57514;52.164;5.282;2023-02-20T08:44:50;24.40;;;8.95;;
70148;SDS011;57514;52.164;5.282;2023-02-20T08:47:18;18.63;;;7.57;;
70148;SDS011;57514;52.164;5.282;2023-02-20T08:49:46;17.00;;;6.45;;
70148;SDS011;57514;52.164;5.282;2023-02-20T08:52:14;17.52;;;7.78;;
70148;SDS011;57514;52.164;5.282;2023-02-20T08:54:45;23.67;;;7.95;;
70148;SDS011;57514;52.164;5.282;2023-02-20T08:57:15;18.83;;;8.80;;
70148;SDS011;57514;52.164;5.282;2023-02-20T08:59:42;13.52;;;6.65;;
70148;SDS011;57514;52.164;5.282;2023-02-20T09:02:17;23.38;;;8.73;;
70148;SDS011;57514;52.164;5.282;2023-02-20T09:04:45;17.67;;;8.18;;
70148;SDS011;57514;52.164;5.282;2023-02-20T09:07:12;20.13;;;8.63;;
70148;SDS011;57514;52.164;5.282;2023-02-20T09:09:40;22.13;;;9.00;;
70148;SDS011;57514;52.164;5.282;2023-02-20T09:12:07;16.92;;;6.68;;
70148;SDS011;57514;52.164;5.282;2023-02-20T09:14:35;13.10;;;6.07;;
70148;SDS011;57514;52.164;5.282;2023-02-20T09:17:03;14.27;;;7.55;;
70148;SDS011;57514;52.164;5.282;2023-02-20T09:19:31;17.67;;;7.82;;
70148;SDS011;57514;52.164;5.282;2023-02-20T09:21:58;17.63;;;7.45;;
70148;SDS011;57514;52.164;5.282;2023-02-20T09:24:26;18.08;;;8.00;;
70148;SDS011;57514;52.164;5.282;2023-02-20T09:26:57;14.10;;;5.95;;
70148;SDS011;57514;52.164;5.282;2023-02-20T09:29:25;21.77;;;8.35;;
70148;SDS011;57514;52.164;5.282;2023-02-20T09:31:52;19.50;;;7.68;;
70148;SDS011;57514;52.164;5.282;2023-02-20T09:34:19;16.83;;;7.45;;
70148;SDS011;57514;52.164;5.282;2023-02-20T09:36:46;16.20;;;7.45;;
70148;SDS011;57514;52.164;5.282;2023-02-20T09:39:14;15.25;;;6.68;;
70148;SDS011;57514;52.164;5.282;2023-02-20T09:41:45;14.07;;;6.25;;
70148;SDS011;57514;52.164;5.282;2023-02-20T09:44:24;17.02;;;7.45;;
70148;SDS011;57514;52.164;5.282;2023-02-20T09:46:52;16.73;;;6.85;;
70148;SDS011;57514;52.164;5.282;2023-02-20T09:49:26;15.15;;;6.70;;
70148;SDS011;57514;52.164;5.282;2023-02-20T09:51:57;17.20;;;7.32;;
70148;SDS011;57514;52.164;5.282;2023-02-20T09:57:01;14.35;;;6.28;;
70148;SDS011;57514;52.164;5.282;2023-02-20T09:59:40;17.30;;;6.15;;
70148;SDS011;57514;52.164;5.282;2023-02-20T10:02:11;13.77;;;7.05;;
70148;SDS011;57514;52.164;5.282;2023-02-20T10:04:45;16.63;;;6.28;;
70148;SDS011;57514;52.164;5.282;2023-02-20T10:07:34;14.07;;;6.30;;
70148;SDS011;57514;52.164;5.282;2023-02-20T10:15:37;12.57;;;5.75;;
70148;SDS011;57514;52.164;5.282;2023-02-20T10:23:18;13.95;;;5.70;;
70148;SDS011;57514;52.164;5.282;2023-02-20T10:25:49;13.80;;;6.15;;
70148;SDS011;57514;52.164;5.282;2023-02-20T10:28:17;17.77;;;7.65;;
70148;SDS011;57514;52.164;5.282;2023-02-20T10:35:56;17.42;;;5.95;;
70148;SDS011;57514;52.164;5.282;2023-02-20T10:38:28;12.82;;;5.95;;
70148;SDS011;57514;52.164;5.282;2023-02-20T10:41:04;13.00;;;5.45;;
70148;SDS011;57514;52.164;5.282;2023-02-20T10:43:45;13.63;;;6.07;;
70148;SDS011;57514;52.164;5.282;2023-02-20T10:46:31;10.75;;;4.40;;
70148;SDS011;57514;52.164;5.282;2023-02-20T10:49:15;11.32;;;5.30;;
70148;SDS011;57514;52.164;5.282;2023-02-20T10:51:44;19.65;;;5.45;;
70148;SDS011;57514;52.164;5.282;2023-02-20T10:54:16;13.15;;;6.18;;
70148;SDS011;57514;52.164;5.282;2023-02-20T10:56:55;7.88;;;4.05;;
70148;SDS011;57514;52.164;5.282;2023-02-20T11:01:55;10.18;;;5.07;;
70148;SDS011;57514;52.164;5.282;2023-02-20T11:04:34;14.65;;;6.68;;
70148;SDS011;57514;52.164;5.282;2023-02-20T11:07:13;13.70;;;6.07;;
70148;SDS011;57514;52.164;5.282;2023-02-20T11:09:40;14.40;;;7.25;;
70148;SDS011;57514;52.164;5.282;2023-02-20T11:12:15;14.48;;;6.20;;
70148;SDS011;57514;52.164;5.282;2023-02-20T11:14:44;20.38;;;6.07;;
70148;SDS011;57514;52.164;5.282;2023-02-20T11:17:13;11.05;;;5.85;;
70148;SDS011;57514;52.164;5.282;2023-02-20T11:19:48;11.95;;;4.95;;
70148;SDS011;57514;52.164;5.282;2023-02-20T11:22:17;12.60;;;6.82;;
70148;SDS011;57514;52.164;5.282;2023-02-20T11:24:45;12.40;;;6.30;;
70148;SDS011;57514;52.164;5.282;2023-02-20T11:27:13;17.52;;;7.32;;
70148;SDS011;57514;52.164;5.282;2023-02-20T11:29:53;12.77;;;7.15;;
70148;SDS011;57514;52.164;5.282;2023-02-20T11:32:36;14.73;;;6.63;;
70148;SDS011;57514;52.164;5.282;2023-02-20T11:37:35;15.63;;;7.22;;
70148;SDS011;57514;52.164;5.282;2023-02-20T11:40:31;11.10;;;5.60;;
70148;SDS011;57514;52.164;5.282;2023-02-20T11:43:09;15.93;;;7.47;;
70148;SDS011;57514;52.164;5.282;2023-02-20T11:45:36;12.32;;;7.15;;
70148;SDS011;57514;52.164;5.282;2023-02-20T11:48:08;13.95;;;7.68;;
70148;SDS011;57514;52.164;5.282;2023-02-20T11:50:43;13.60;;;5.10;;
70148;SDS011;57514;52.164;5.282;2023-02-20T11:53:24;15.07;;;6.50;;
70148;SDS011;57514;52.164;5.282;2023-02-20T11:56:11;15.82;;;8.02;;
70148;SDS011;57514;52.164;5.282;2023-02-20T11:58:40;10.73;;;6.72;;
70148;SDS011;57514;52.164;5.282;2023-02-20T12:01:26;12.27;;;6.47;;
70148;SDS011;57514;52.164;5.282;2023-02-20T12:03:55;11.38;;;5.25;;
70148;SDS011;57514;52.164;5.282;2023-02-20T12:06:37;12.38;;;6.47;;
70148;SDS011;57514;52.164;5.282;2023-02-20T12:09:06;11.95;;;6.57;;
70148;SDS011;57514;52.164;5.282;2023-02-20T12:11:36;14.75;;;5.88;;
70148;SDS011;57514;52.164;5.282;2023-02-20T12:14:05;12.02;;;4.88;;
70148;SDS011;57514;52.164;5.282;2023-02-20T12:27:00;11.60;;;4.22;;
70148;SDS011;57514;52.164;5.282;2023-02-20T12:32:02;5.97;;;3.08;;
70148;SDS011;57514;52.164;5.282;2023-02-20T12:34:40;11.70;;;4.05;;
70148;SDS011;57514;52.164;5.282;2023-02-20T12:37:16;13.75;;;4.03;;
70148;SDS011;57514;52.164;5.282;2023-02-20T12:47:42;9.95;;;4.28;;
70148;SDS011;57514;52.164;5.282;2023-02-20T12:50:56;9.35;;;4.38;;
70148;SDS011;57514;52.164;5.282;2023-02-20T13:03:07;11.27;;;4.07;;
70148;SDS011;57514;52.164;5.282;2023-02-20T13:05:37;16.05;;;6.57;;
70148;SDS011;57514;52.164;5.282;2023-02-20T13:08:08;12.38;;;6.43;;
70148;SDS011;57514;52.164;5.282;2023-02-20T13:10:44;12.90;;;6.05;;
70148;SDS011;57514;52.164;5.282;2023-02-20T13:13:13;11.02;;;5.22;;
70148;SDS011;57514;52.164;5.282;2023-02-20T13:15:45;15.68;;;6.22;;
70148;SDS011;57514;52.164;5.282;2023-02-20T13:18:19;13.55;;;5.70;;
70148;SDS011;57514;52.164;5.282;2023-02-20T13:20:50;13.70;;;5.72;;
70148;SDS011;57514;52.164;5.282;2023-02-20T13:25:47;8.40;;;4.53;;
70148;SDS011;57514;52.164;5.282;2023-02-20T13:33:33;14.85;;;6.70;;
70148;SDS011;57514;52.164;5.282;2023-02-20T13:36:03;12.52;;;5.65;;
70148;SDS011;57514;52.164;5.282;2023-02-20T13:38:31;12.65;;;6.72;;
70148;SDS011;57514;52.164;5.282;2023-02-20T13:41:03;13.75;;;6.32;;
70148;SDS011;57514;52.164;5.282;2023-02-20T13:53:48;9.82;;;5.55;;
70148;SDS011;57514;52.164;5.282;2023-02-20T13:57:08;8.57;;;4.30;;
70148;SDS011;57514;52.164;5.282;2023-02-20T13:59:07;11.98;;;5.35;;
70148;SDS011;57514;52.164;5.282;2023-02-20T14:01:55;9.65;;;4.85;;
70148;SDS011;57514;52.164;5.282;2023-02-20T14:04:23;15.32;;;5.82;;
70148;SDS011;57514;52.164;5.282;2023-02-20T14:06:51;13.52;;;6.03;;
70148;SDS011;57514;52.164;5.282;2023-02-20T14:09:25;10.98;;;4.20;;
70148;SDS011;57514;52.164;5.282;2023-02-20T14:14:53;11.77;;;5.72;;
70148;SDS011;57514;52.164;5.282;2023-02-20T14:17:22;8.40;;;4.72;;
70148;SDS011;57514;52.164;5.282;2023-02-20T14:19:55;8.35;;;3.70;;
70148;SDS011;57514;52.164;5.282;2023-02-20T14:22:38;10.30;;;4.53;;
70148;SDS011;57514;52.164;5.282;2023-02-20T14:27:39;12.35;;;5.65;;
70148;SDS011;57514;52.164;5.282;2023-02-20T14:30:07;13.98;;;5.65;;
70148;SDS011;57514;52.164;5.282;2023-02-20T14:32:35;13.02;;;5.75;;
70148;SDS011;57514;52.164;5.282;2023-02-20T14:42:38;13.77;;;6.10;;
70148;SDS011;57514;52.164;5.282;2023-02-20T14:45:10;13.35;;;6.28;;
70148;SDS011;57514;52.164;5.282;2023-02-20T14:47:51;13.85;;;7.07;;
70148;SDS011;57514;52.164;5.282;2023-02-20T14:50:20;12.45;;;6.30;;
70148;SDS011;57514;52.164;5.282;2023-02-20T14:58:04;13.32;;;6.10;;
70148;SDS011;57514;52.164;5.282;2023-02-20T15:00:33;11.88;;;5.72;;
70148;SDS011;57514;52.164;5.282;2023-02-20T15:03:07;10.80;;;4.75;;
70148;SDS011;57514;52.164;5.282;2023-02-20T15:05:53;15.18;;;6.22;;
70148;SDS011;57514;52.164;5.282;2023-02-20T15:08:22;13.20;;;6.38;;
70148;SDS011;57514;52.164;5.282;2023-02-20T15:10:49;10.95;;;5.22;;
70148;SDS011;57514;52.164;5.282;2023-02-20T15:13:22;11.57;;;5.65;;
70148;SDS011;57514;52.164;5.282;2023-02-20T15:15:53;15.18;;;7.97;;
70148;SDS011;57514;52.164;5.282;2023-02-20T15:18:34;14.80;;;6.13;;
70148;SDS011;57514;52.164;5.282;2023-02-20T15:21:02;14.70;;;7.53;;
70148;SDS011;57514;52.164;5.282;2023-02-20T15:23:33;18.13;;;8.73;;
70148;SDS011;57514;52.164;5.282;2023-02-20T15:28:47;14.95;;;8.18;;
70148;SDS011;57514;52.164;5.282;2023-02-20T15:31:19;17.27;;;9.10;;
70148;SDS011;57514;52.164;5.282;2023-02-20T15:33:49;23.17;;;10.90;;
70148;SDS011;57514;52.164;5.282;2023-02-20T15:36:19;20.48;;;12.45;;
70148;SDS011;57514;52.164;5.282;2023-02-20T15:38:47;15.20;;;8.50;;
70148;SDS011;57514;52.164;5.282;2023-02-20T15:41:17;13.02;;;7.22;;
70148;SDS011;57514;52.164;5.282;2023-02-20T15:43:49;18.95;;;9.40;;
70148;SDS011;57514;52.164;5.282;2023-02-20T15:46:32;15.05;;;8.57;;
70148;SDS011;57514;52.164;5.282;2023-02-20T15:49:08;19.27;;;9.20;;
70148;SDS011;57514;52.164;5.282;2023-02-20T15:51:45;16.27;;;8.73;;
70148;SDS011;57514;52.164;5.282;2023-02-20T15:54:14;18.67;;;7.57;;
70148;SDS011;57514;52.164;5.282;2023-02-20T15:56:42;15.77;;;8.05;;
70148;SDS011;57514;52.164;5.282;2023-02-20T15:59:12;22.33;;;10.45;;
70148;SDS011;57514;52.164;5.282;2023-02-20T16:01:40;20.85;;;11.40;;
70148;SDS011;57514;52.164;5.282;2023-02-20T16:04:07;18.75;;;10.23;;
70148;SDS011;57514;52.164;5.282;2023-02-20T16:06:35;16.65;;;9.27;;
70148;SDS011;57514;52.164;5.282;2023-02-20T16:09:02;18.70;;;9.68;;
70148;SDS011;57514;52.164;5.282;2023-02-20T16:11:39;24.00;;;12.38;;
70148;SDS011;57514;52.164;5.282;2023-02-20T16:14:07;17.35;;;10.50;;
70148;SDS011;57514;52.164;5.282;2023-02-20T16:16:39;12.82;;;8.02;;
70148;SDS011;57514;52.164;5.282;2023-02-20T16:19:14;17.48;;;8.77;;
70148;SDS011;57514;52.164;5.282;2023-02-20T16:21:42;16.52;;;8.55;;
70148;SDS011;57514;52.164;5.282;2023-02-20T16:24:24;19.73;;;9.85;;
70148;SDS011;57514;52.164;5.282;2023-02-20T16:26:51;13.05;;;7.40;;
70148;SDS011;57514;52.164;5.282;2023-02-20T16:29:19;15.43;;;8.35;;
70148;SDS011;57514;52.164;5.282;2023-02-20T16:36:47;11.70;;;6.40;;
70148;SDS011;57514;52.164;5.282;2023-02-20T16:39:15;16.70;;;6.78;;
70148;SDS011;57514;52.164;5.282;2023-02-20T16:41:51;9.27;;;5.13;;
70148;SDS011;57514;52.164;5.282;2023-02-20T16:46:49;16.45;;;7.63;;
70148;SDS011;57514;52.164;5.282;2023-02-20T16:49:17;13.52;;;7.45;;
70148;SDS011;57514;52.164;5.282;2023-02-20T16:51:44;14.15;;;7.65;;
70148;SDS011;57514;52.164;5.282;2023-02-20T16:54:14;18.05;;;8.18;;
70148;SDS011;57514;52.164;5.282;2023-02-20T16:56:42;18.10;;;6.45;;
70148;SDS011;57514;52.164;5.282;2023-02-20T16:59:09;15.10;;;7.75;;
70148;SDS011;57514;52.164;5.282;2023-02-20T17:01:36;15.73;;;7.57;;
70148;SDS011;57514;52.164;5.282;2023-02-20T17:04:04;12.93;;;8.15;;